Strona główna
METAR-TAF:

METAR-TAF

Lotnisko :

Port lotniczy Asunción

Asunción, Paragwaj

Szerokość geograficzna: 25-16S, Długość geograficzna: 057-38W, wysokość: 101 m

Aktualna obserwacja pogody

Raport powstał 30 minut temu, godzina 20:00 UTC
Wiatr 5 kt z kierunków zmiennych
Temperatura 17°C
Wilgotność 39%
Ciśnienie 1015 hPa
Widzialność 10 km lub więcej
Brak chmur poniżej 1500 m i brak chmur cumulonimbus

METAR: SGAS 262000Z VRB05KT CAVOK 17/03 Q1015

czas: 16:30 (20:30 UTC)

Prognoza

Raport powstał 3 godziny i 27 minut temu, godzina 17:03 UTC
Prognoza ważna od 26 godzina 18 UTC do 27 godzina 18 UTC
Wiatr 6 kt od południe
Widzialność 10 km lub więcej
Brak chmur poniżej 1500 m i brak chmur cumulonimbus
Stopniowe zmiany
pomiędzy i UTC
Stopniowe zmiany
od 27 godzina 12 UTC do 27 godzina 15 UTC
Wiatr 10 kt od północny wschód

TAF: SGAS 261703Z 2618/2718 18006KT CAVOK TX17/2619Z TN09/2709Z BECMG BECMG 2712/2715 05010KT

Obserwacja i prognoza pogody dla ponad 4000 lotnisk (raport METAR i TAF).

Dostępne stacje oznaczono żółtymi i czerwonymi punktami na mapie.

Najedź kursorem aby zobaczyć nazwę stacji.

Kliknij aby zobaczyć obserwacje i prognozy pogody.

Aby zmienić mapę: kliknij na zielony przycisk z czarnym krzyżykiem, aby powiększyć; na zielony przycisk z myślnikiem, aby pomniejszyć; na zielone strzałki, aby przejść do map sąsiednich.


METAR-TAF: